Neerpelt, Belgium
Current Conditions -  °F | °C
As of 4:55 AM on Sunday 25 Jan 2015 (Local Time) from EBBL Reporting Station
Overcast Overcast  
Wind Chill: 26°   Ceiling: 15000
Heat Index: 32°   Visibility: 3mi
Dew Point: 30°   Wind: 6mph
Humidity: 93%   Direction: 240°WSW
Pressure: 30.39"   Gusts: NA
Location:  51.23°N, 5.44°E
Report Text: EBBL 250355Z AUTO 24005KT 5000 FEW041/// OVC150/// 00/M01 Q1029 WHT
Loading
Personal Weather Stations






























Interactive Weather Map New forecast layout! Learn more

10-Day Weather Forecast

Advertisements
Track Severe Weather on mobile